createdAt,value
2018-04-08T00:00:28.672Z,8.50
2018-04-08T00:02:56.844Z,8.80
2018-04-08T00:05:24.999Z,8.90
2018-04-08T00:07:53.211Z,8.80
2018-04-08T00:10:21.532Z,8.70
2018-04-08T00:12:49.724Z,8.50
2018-04-08T00:15:17.901Z,8.60
2018-04-08T00:17:46.098Z,8.30
2018-04-08T00:20:14.267Z,8.20
2018-04-08T00:22:42.455Z,7.90
2018-04-08T00:25:10.643Z,7.70
2018-04-08T00:27:38.842Z,7.90
2018-04-08T00:30:07.055Z,8.00
2018-04-08T00:32:35.269Z,8.10
2018-04-08T00:35:03.440Z,7.80
2018-04-08T00:37:31.632Z,8.10
2018-04-08T00:39:59.828Z,8.20
2018-04-08T00:42:28.029Z,8.10
2018-04-08T00:44:56.203Z,8.00
2018-04-08T00:47:24.407Z,7.80
2018-04-08T00:49:53.371Z,8.20
2018-04-08T00:52:21.570Z,8.20
2018-04-08T00:54:49.753Z,8.00
2018-04-08T00:57:17.948Z,7.90
2018-04-08T00:59:46.888Z,7.50
2018-04-08T01:02:15.088Z,7.50
2018-04-08T01:04:43.259Z,7.60
2018-04-08T01:07:11.456Z,7.50
2018-04-08T01:09:39.676Z,7.80
2018-04-08T01:12:07.881Z,8.00
2018-04-08T01:14:36.048Z,8.00
2018-04-08T01:17:04.247Z,7.80
2018-04-08T01:19:33.213Z,7.40
2018-04-08T01:22:02.172Z,7.70
2018-04-08T01:24:30.349Z,7.70
2018-04-08T01:26:58.590Z,7.80
2018-04-08T01:29:26.803Z,7.90
2018-04-08T01:31:54.980Z,7.90
2018-04-08T01:34:23.177Z,7.50
2018-04-08T01:36:52.130Z,7.40
2018-04-08T01:39:20.332Z,7.40
2018-04-08T01:41:48.500Z,7.40
2018-04-08T01:44:16.695Z,7.70
2018-04-08T01:46:44.864Z,7.80
2018-04-08T01:49:13.889Z,7.60
2018-04-08T01:51:42.108Z,7.60
2018-04-08T01:54:11.037Z,7.60
2018-04-08T01:56:39.200Z,7.60
2018-04-08T01:59:07.408Z,7.30
2018-04-08T02:01:35.577Z,7.40
2018-04-08T02:04:03.773Z,7.50
2018-04-08T02:09:07.277Z,7.10
2018-04-08T02:11:36.215Z,7.10
2018-04-08T02:14:04.420Z,7.10
2018-04-08T02:16:32.601Z,7.30
2018-04-08T02:19:00.848Z,7.30
2018-04-08T02:21:29.012Z,7.10
2018-04-08T02:23:57.542Z,6.80
2018-04-08T02:26:25.704Z,6.70
2018-04-08T02:28:53.912Z,6.60
2018-04-08T02:31:22.848Z,6.50
2018-04-08T02:33:51.036Z,6.40
2018-04-08T02:36:19.217Z,6.50
2018-04-08T02:38:48.232Z,7.00
2018-04-08T02:41:16.415Z,7.00
2018-04-08T02:43:44.583Z,7.10
2018-04-08T02:46:12.774Z,6.80
2018-04-08T02:48:41.162Z,6.40
2018-04-08T02:51:09.356Z,6.30
2018-04-08T02:53:37.533Z,6.30
2018-04-08T02:56:05.728Z,6.20
2018-04-08T02:58:34.707Z,6.70
2018-04-08T03:01:02.913Z,6.60
2018-04-08T03:03:31.080Z,6.80
2018-04-08T03:05:59.278Z,6.80
2018-04-08T03:08:28.239Z,6.30
2018-04-08T03:10:56.442Z,6.30
2018-04-08T03:13:24.612Z,6.50
2018-04-08T03:15:52.803Z,6.80
2018-04-08T03:18:21.030Z,6.50
2018-04-08T03:20:49.218Z,6.20
2018-04-08T03:23:17.392Z,6.10
2018-04-08T03:25:45.583Z,6.10
2018-04-08T03:28:13.770Z,6.10
2018-04-08T03:30:42.733Z,6.20
2018-04-08T03:33:10.908Z,6.20
2018-04-08T03:35:39.113Z,6.20
2018-04-08T03:38:08.040Z,5.80
2018-04-08T03:40:36.245Z,6.00
2018-04-08T03:43:04.434Z,6.20
2018-04-08T03:45:32.632Z,6.20
2018-04-08T03:48:01.577Z,6.20
2018-04-08T03:50:29.768Z,6.20
2018-04-08T03:52:57.943Z,6.40
2018-04-08T03:55:26.148Z,6.30
2018-04-08T03:57:54.592Z,6.30
2018-04-08T04:00:22.764Z,6.40
2018-04-08T04:02:50.942Z,6.50
2018-04-08T04:05:19.139Z,6.50
2018-04-08T04:07:47.554Z,5.90
2018-04-08T04:10:15.759Z,5.90
2018-04-08T04:12:43.944Z,5.70
2018-04-08T04:15:12.111Z,5.60
2018-04-08T04:17:40.576Z,5.70
2018-04-08T04:20:20.753Z,5.80
2018-04-08T04:23:00.891Z,5.70
2018-04-08T04:28:31.958Z,6.00
2018-04-08T04:31:00.195Z,6.00
2018-04-08T04:33:28.380Z,5.90
2018-04-08T04:35:56.589Z,5.80
2018-04-08T04:38:24.763Z,5.70
2018-04-08T04:40:52.948Z,5.80
2018-04-08T04:43:21.140Z,5.60
2018-04-08T04:45:49.320Z,5.60
2018-04-08T04:48:17.522Z,5.30
2018-04-08T04:50:45.732Z,5.40
2018-04-08T04:53:13.924Z,5.10
2018-04-08T04:55:42.104Z,5.00
2018-04-08T04:58:10.300Z,5.20
2018-04-08T05:00:39.251Z,5.30
2018-04-08T05:03:07.455Z,5.30
2018-04-08T05:05:35.633Z,5.50
2018-04-08T05:08:04.600Z,5.40
2018-04-08T05:10:32.797Z,5.40
2018-04-08T05:13:01.012Z,5.50
2018-04-08T05:15:29.194Z,5.60
2018-04-08T05:17:59.360Z,5.90
2018-04-08T05:20:27.552Z,5.90
2018-04-08T05:22:56.516Z,5.90
2018-04-08T05:25:24.696Z,5.90
2018-04-08T05:27:52.896Z,5.80
2018-04-08T05:30:21.111Z,5.90
2018-04-08T05:32:49.304Z,6.00
2018-04-08T05:35:17.476Z,5.80
2018-04-08T05:37:45.671Z,6.00
2018-04-08T05:40:13.863Z,5.90
2018-04-08T05:42:42.053Z,5.80
2018-04-08T05:45:10.996Z,6.00
2018-04-08T05:47:39.201Z,5.90
2018-04-08T05:50:08.173Z,6.10
2018-04-08T05:52:36.370Z,6.10
2018-04-08T05:55:04.549Z,6.10
2018-04-08T05:57:32.715Z,6.20
2018-04-08T06:00:00.914Z,6.60
2018-04-08T06:02:29.855Z,7.00
2018-04-08T06:04:58.055Z,6.90
2018-04-08T06:07:26.224Z,6.80
2018-04-08T06:09:54.561Z,6.90
2018-04-08T06:12:22.740Z,7.20
2018-04-08T06:14:50.931Z,7.40
2018-04-08T06:17:19.104Z,7.60
2018-04-08T06:19:47.323Z,7.70
2018-04-08T06:22:16.271Z,7.90
2018-04-08T06:24:44.468Z,7.90
2018-04-08T06:27:12.640Z,8.10
2018-04-08T06:29:40.856Z,8.20
2018-04-08T06:32:09.040Z,8.20
2018-04-08T06:34:37.602Z,8.40
2018-04-08T06:37:06.540Z,8.70
2018-04-08T06:39:34.752Z,8.70
2018-04-08T06:42:02.936Z,9.00
2018-04-08T06:44:31.910Z,9.60
2018-04-08T06:47:00.088Z,9.60
2018-04-08T06:49:30.083Z,9.90
2018-04-08T06:51:58.261Z,10.30
2018-04-08T06:54:26.459Z,10.60
2018-04-08T06:56:54.651Z,11.00
2018-04-08T06:59:22.860Z,11.40
2018-04-08T07:01:51.053Z,11.60
2018-04-08T07:04:19.277Z,11.80
2018-04-08T07:06:48.213Z,12.00
2018-04-08T07:09:16.452Z,12.00
2018-04-08T07:11:44.627Z,12.50
2018-04-08T07:14:12.804Z,12.90
2018-04-08T07:16:41.009Z,13.00
2018-04-08T07:19:09.199Z,13.10
2018-04-08T07:21:37.393Z,13.40
2018-04-08T07:24:06.253Z,13.80
2018-04-08T07:26:34.900Z,13.80
2018-04-08T07:29:03.112Z,14.10
2018-04-08T07:31:32.243Z,14.50
2018-04-08T07:34:01.420Z,14.80
2018-04-08T07:36:29.633Z,14.70
2018-04-08T07:38:57.844Z,14.90
2018-04-08T07:41:26.048Z,15.20
2018-04-08T07:43:54.244Z,15.40
2018-04-08T07:46:22.462Z,15.70
2018-04-08T07:48:50.675Z,16.00
2018-04-08T07:51:18.872Z,16.00
2018-04-08T07:53:47.828Z,16.50
2018-04-08T07:56:16.033Z,16.50
2018-04-08T07:58:45.024Z,16.70
2018-04-08T08:01:13.232Z,16.70
2018-04-08T08:03:41.417Z,16.90
2018-04-08T08:06:09.629Z,16.90
2018-04-08T08:08:38.604Z,16.90
2018-04-08T08:11:06.813Z,16.90
2018-04-08T08:13:34.991Z,17.20
2018-04-08T08:16:03.201Z,17.00
2018-04-08T08:18:31.384Z,17.20
2018-04-08T08:20:59.758Z,18.40
2018-04-08T08:23:27.936Z,22.70
2018-04-08T08:25:56.363Z,25.70
2018-04-08T08:28:24.588Z,27.30
2018-04-08T08:30:52.791Z,28.30
2018-04-08T08:33:20.980Z,24.00
2018-04-08T08:35:49.196Z,19.80
2018-04-08T08:38:17.566Z,18.10
2018-04-08T08:40:45.765Z,17.50
2018-04-08T08:43:13.948Z,17.30
2018-04-08T08:45:42.143Z,17.40
2018-04-08T08:48:10.504Z,17.50
2018-04-08T08:50:38.698Z,17.70
2018-04-08T08:53:06.880Z,17.90
2018-04-08T08:55:35.105Z,18.00
2018-04-08T08:58:03.396Z,18.20
2018-04-08T09:00:31.577Z,18.40
2018-04-08T09:02:59.799Z,18.90
2018-04-08T09:05:28.000Z,21.30
2018-04-08T09:07:56.352Z,23.50
2018-04-08T09:10:24.630Z,24.20
2018-04-08T09:12:53.008Z,24.10
2018-04-08T09:15:21.796Z,24.60
2018-04-08T09:17:50.583Z,24.90
2018-04-08T09:20:19.543Z,20.90
2018-04-08T09:26:02.647Z,20.40
2018-04-08T09:28:30.968Z,20.80
2018-04-08T09:30:59.171Z,20.90
2018-04-08T09:33:28.128Z,20.90
2018-04-08T09:35:56.297Z,20.90
2018-04-08T09:38:24.574Z,21.00
2018-04-08T09:40:52.756Z,21.10
2018-04-08T09:43:20.966Z,21.20
2018-04-08T09:45:49.917Z,21.30
2018-04-08T09:48:18.927Z,21.60
2018-04-08T09:50:47.100Z,21.60
2018-04-08T09:53:15.313Z,21.70
2018-04-08T09:55:44.248Z,21.80
2018-04-08T09:58:15.043Z,21.80
2018-04-08T10:00:47.039Z,21.90
2018-04-08T10:06:16.672Z,22.40
2018-04-08T10:08:44.911Z,22.60
2018-04-08T10:11:13.104Z,22.80
2018-04-08T10:13:41.304Z,22.80
2018-04-08T10:16:09.476Z,22.80
2018-04-08T10:18:37.701Z,22.80
2018-04-08T10:21:06.652Z,23.10
2018-04-08T10:23:34.840Z,23.10
2018-04-08T10:26:03.026Z,23.20
2018-04-08T10:28:31.255Z,23.30
2018-04-08T10:30:59.440Z,23.30
2018-04-08T10:33:27.641Z,23.40
2018-04-08T10:35:56.031Z,23.50
2018-04-08T10:38:24.808Z,23.50
2018-04-08T10:40:53.798Z,23.70
2018-04-08T10:43:22.074Z,23.80
2018-04-08T10:45:52.840Z,23.80
2018-04-08T10:48:21.763Z,24.10
2018-04-08T10:50:50.275Z,24.30
2018-04-08T10:53:20.392Z,24.50
2018-04-08T10:55:50.137Z,24.80
2018-04-08T10:58:18.482Z,24.90
2018-04-08T11:00:48.151Z,24.80
2018-04-08T11:03:16.343Z,24.80
2018-04-08T11:05:44.538Z,24.80
2018-04-08T11:08:13.617Z,25.10
2018-04-08T11:10:41.791Z,25.10
2018-04-08T11:13:10.175Z,25.30
2018-04-08T11:15:38.543Z,25.40
2018-04-08T11:18:06.825Z,25.80
2018-04-08T11:20:34.998Z,26.30
2018-04-08T11:23:03.164Z,26.70
2018-04-08T11:25:31.367Z,27.30
2018-04-08T11:27:59.568Z,27.80
2018-04-08T11:30:27.760Z,26.20
2018-04-08T11:32:56.451Z,30.10
2018-04-08T11:35:24.644Z,28.20
2018-04-08T11:37:53.724Z,25.40
2018-04-08T11:40:22.689Z,24.20
2018-04-08T11:42:50.859Z,24.20
2018-04-08T11:45:19.060Z,24.10
2018-04-08T11:47:47.297Z,24.20
2018-04-08T11:50:15.490Z,24.20
2018-04-08T11:52:43.659Z,24.20
2018-04-08T11:55:11.861Z,24.40
2018-04-08T11:57:40.213Z,24.50
2018-04-08T12:00:08.407Z,24.50
2018-04-08T12:02:36.587Z,24.80
2018-04-08T12:05:04.787Z,24.70
2018-04-08T12:07:33.101Z,24.50
2018-04-08T12:10:01.320Z,24.50
2018-04-08T12:12:29.488Z,24.90
2018-04-08T12:14:57.737Z,25.40
2018-04-08T12:17:26.643Z,25.20
2018-04-08T12:19:54.846Z,25.20
2018-04-08T12:22:23.779Z,25.20
2018-04-08T12:24:51.968Z,25.20
2018-04-08T12:27:20.215Z,25.40
2018-04-08T12:29:48.404Z,25.20
2018-04-08T12:32:16.572Z,25.30
2018-04-08T12:34:44.828Z,25.40
2018-04-08T12:37:13.766Z,25.20
2018-04-08T12:39:41.965Z,25.20
2018-04-08T12:42:10.139Z,25.40
2018-04-08T12:44:38.312Z,26.00
2018-04-08T12:47:06.548Z,26.00
2018-04-08T12:49:34.750Z,25.80
2018-04-08T12:52:02.946Z,25.80
2018-04-08T12:54:31.892Z,25.70
2018-04-08T12:57:00.864Z,26.20
2018-04-08T12:59:29.037Z,26.10
2018-04-08T13:01:57.244Z,26.20
2018-04-08T13:04:25.405Z,26.00
2018-04-08T13:06:54.413Z,26.20
2018-04-08T13:09:22.589Z,26.20
2018-04-08T13:11:50.784Z,26.20
2018-04-08T13:14:18.957Z,26.20
2018-04-08T13:16:48.038Z,26.40
2018-04-08T13:19:16.209Z,26.30
2018-04-08T13:21:44.405Z,26.30
2018-04-08T13:24:13.353Z,26.50
2018-04-08T13:26:41.580Z,26.50
2018-04-08T13:29:10.546Z,26.90
2018-04-08T13:31:38.703Z,26.80
2018-04-08T13:34:06.883Z,26.50
2018-04-08T13:36:35.077Z,26.60
2018-04-08T13:39:04.022Z,26.20
2018-04-08T13:41:32.207Z,26.20
2018-04-08T13:44:01.064Z,26.10
2018-04-08T13:46:29.286Z,26.00
2018-04-08T13:48:57.460Z,26.10
2018-04-08T13:51:25.664Z,25.90
2018-04-08T13:53:54.600Z,26.00
2018-04-08T13:56:22.808Z,26.00
2018-04-08T13:58:50.977Z,25.70
2018-04-08T14:01:19.179Z,25.10
2018-04-08T14:03:48.122Z,25.10
2018-04-08T14:06:16.355Z,25.00
2018-04-08T14:08:45.296Z,25.30
2018-04-08T14:11:13.496Z,25.20
2018-04-08T14:13:41.700Z,25.30
2018-04-08T14:16:10.813Z,25.50
2018-04-08T14:18:39.010Z,25.60
2018-04-08T14:21:07.189Z,25.70
2018-04-08T14:23:35.380Z,25.60
2018-04-08T14:26:03.571Z,25.80
2018-04-08T14:28:31.752Z,25.70
2018-04-08T14:31:00.722Z,25.60
2018-04-08T14:33:28.929Z,25.60
2018-04-08T14:35:57.873Z,25.40
2018-04-08T14:38:26.073Z,25.40
2018-04-08T14:40:54.250Z,25.40
2018-04-08T14:43:22.440Z,25.50
2018-04-08T14:45:52.612Z,25.00
2018-04-08T14:48:20.813Z,25.00
2018-04-08T14:50:48.989Z,25.00
2018-04-08T14:53:17.975Z,25.20
2018-04-08T14:55:46.935Z,25.30
2018-04-08T14:58:15.146Z,25.30
2018-04-08T15:00:44.811Z,25.20
2018-04-08T15:03:13.008Z,25.20
2018-04-08T15:05:42.004Z,25.00
2018-04-08T15:08:10.201Z,24.90
2018-04-08T15:10:38.406Z,24.80
2018-04-08T15:13:07.369Z,24.80
2018-04-08T15:15:35.591Z,24.80
2018-04-08T15:18:03.785Z,24.70
2018-04-08T15:20:31.955Z,24.70
2018-04-08T15:23:00.160Z,24.60
2018-04-08T15:25:28.544Z,24.50
2018-04-08T15:27:56.728Z,24.60
2018-04-08T15:30:25.664Z,24.50
2018-04-08T15:32:53.878Z,24.40
2018-04-08T15:35:22.943Z,24.40
2018-04-08T15:37:51.147Z,24.40
2018-04-08T15:40:19.357Z,24.30
2018-04-08T15:42:47.553Z,24.10
2018-04-08T15:45:15.759Z,24.10
2018-04-08T15:47:43.949Z,24.00
2018-04-08T15:50:12.151Z,24.00
2018-04-08T15:52:41.102Z,23.90
2018-04-08T15:55:10.096Z,23.90
2018-04-08T15:57:38.280Z,23.90
2018-04-08T16:00:06.476Z,23.70
2018-04-08T16:02:36.369Z,23.70
2018-04-08T16:05:05.356Z,23.70
2018-04-08T16:07:33.532Z,23.60
2018-04-08T16:10:01.731Z,23.60
2018-04-08T16:12:30.672Z,23.40
2018-04-08T16:14:59.692Z,23.30
2018-04-08T16:17:28.651Z,23.10
2018-04-08T16:19:56.893Z,23.10
2018-04-08T16:22:25.072Z,23.10
2018-04-08T16:24:53.275Z,23.00
2018-04-08T16:27:21.522Z,23.00
2018-04-08T16:29:49.716Z,22.90
2018-04-08T16:32:17.903Z,22.80
2018-04-08T16:34:46.924Z,22.60
2018-04-08T16:37:15.880Z,22.60
2018-04-08T16:39:44.085Z,22.50
2018-04-08T16:42:12.265Z,22.50
2018-04-08T16:44:40.487Z,22.30
2018-04-08T16:47:08.656Z,22.20
2018-04-08T16:49:36.855Z,22.00
2018-04-08T16:52:05.036Z,22.10
2018-04-08T16:54:34.039Z,22.00
2018-04-08T16:57:02.216Z,22.00
2018-04-08T16:59:30.449Z,21.90
2018-04-08T17:01:58.683Z,21.80
2018-04-08T17:04:27.721Z,22.30
2018-04-08T17:06:55.915Z,22.30
2018-04-08T17:09:24.126Z,21.80
2018-04-08T17:11:52.313Z,21.60
2018-04-08T17:14:21.276Z,21.20
2018-04-08T17:16:49.529Z,21.20
2018-04-08T17:19:17.781Z,21.10
2018-04-08T17:21:45.968Z,21.00
2018-04-08T17:24:14.165Z,20.90
2018-04-08T17:26:42.348Z,20.90
2018-04-08T17:29:10.525Z,20.80
2018-04-08T17:31:38.720Z,20.60
2018-04-08T17:34:07.659Z,20.50
2018-04-08T17:36:35.864Z,20.50
2018-04-08T17:39:06.472Z,20.30
2018-04-08T17:41:34.677Z,20.30
2018-04-08T17:44:02.897Z,20.20
2018-04-08T17:46:31.132Z,20.10
2018-04-08T17:48:59.299Z,20.10
2018-04-08T17:51:27.501Z,20.00
2018-04-08T17:53:55.800Z,19.90
2018-04-08T17:56:23.995Z,19.80
2018-04-08T17:58:52.163Z,19.70
2018-04-08T18:01:20.372Z,19.60
2018-04-08T18:03:48.656Z,19.50
2018-04-08T18:06:16.861Z,19.40
2018-04-08T18:08:45.044Z,19.30
2018-04-08T18:11:14.200Z,19.40
2018-04-08T18:13:42.528Z,19.30
2018-04-08T18:16:10.893Z,19.20
2018-04-08T18:18:39.080Z,19.10
2018-04-08T18:21:07.332Z,19.00
2018-04-08T18:23:35.667Z,18.90
2018-04-08T18:26:03.884Z,18.90
2018-04-08T18:28:32.187Z,18.80
2018-04-08T18:31:00.396Z,18.70
2018-04-08T18:33:28.618Z,18.50
2018-04-08T18:35:56.815Z,18.40
2018-04-08T18:38:24.996Z,18.40
2018-04-08T18:40:53.208Z,18.20
2018-04-08T18:43:21.424Z,18.10
2018-04-08T18:45:49.628Z,18.10
2018-04-08T18:48:17.829Z,18.00
2018-04-08T18:50:46.776Z,17.90
2018-04-08T18:53:15.061Z,17.90
2018-04-08T18:55:43.235Z,17.60
2018-04-08T18:58:11.427Z,17.30
2018-04-08T19:00:39.610Z,17.10
2018-04-08T19:03:07.852Z,16.90
2018-04-08T19:05:36.035Z,17.30
2018-04-08T19:08:04.244Z,17.20
2018-04-08T19:10:32.418Z,17.00
2018-04-08T19:13:00.667Z,16.80
2018-04-08T19:15:28.838Z,16.60
2018-04-08T19:18:03.089Z,16.40
2018-04-08T19:20:32.027Z,16.90
2018-04-08T19:23:00.316Z,16.90
2018-04-08T19:25:28.488Z,16.90
2018-04-08T19:27:56.674Z,16.70
2018-04-08T19:30:24.884Z,16.40
2018-04-08T19:32:53.075Z,16.20
2018-04-08T19:35:22.011Z,15.70
2018-04-08T19:37:50.210Z,15.60
2018-04-08T19:40:18.375Z,15.30
2018-04-08T19:42:46.619Z,15.40
2018-04-08T19:45:14.788Z,15.60
2018-04-08T19:47:42.986Z,15.40
2018-04-08T19:50:11.156Z,15.20
2018-04-08T19:52:39.454Z,14.80
2018-04-08T19:55:07.617Z,14.60
2018-04-08T19:57:36.241Z,14.30
2018-04-08T20:00:05.172Z,14.20
2018-04-08T20:02:33.392Z,14.20
2018-04-08T20:05:02.331Z,14.50
2018-04-08T20:07:30.544Z,14.40
2018-04-08T20:09:58.711Z,14.00
2018-04-08T20:12:26.937Z,13.90
2018-04-08T20:14:55.124Z,13.90
2018-04-08T20:17:23.326Z,13.90
2018-04-08T20:19:51.528Z,13.90
2018-04-08T20:22:19.738Z,14.00
2018-04-08T20:24:47.928Z,13.80
2018-04-08T20:27:16.100Z,13.50
2018-04-08T20:29:44.296Z,13.40
2018-04-08T20:32:12.537Z,13.40
2018-04-08T20:34:40.728Z,13.10
2018-04-08T20:37:08.891Z,13.00
2018-04-08T20:39:37.088Z,12.90
2018-04-08T20:42:05.324Z,12.80
2018-04-08T20:44:34.297Z,12.90
2018-04-08T20:47:02.465Z,12.90
2018-04-08T20:49:30.657Z,12.90
2018-04-08T20:51:59.613Z,12.70
2018-04-08T20:54:27.801Z,12.70
2018-04-08T20:56:56.084Z,12.60
2018-04-08T20:59:24.270Z,12.30
2018-04-08T21:01:53.208Z,12.60
2018-04-08T21:04:21.400Z,12.60
2018-04-08T21:06:49.591Z,12.50
2018-04-08T21:09:17.776Z,12.20
2018-04-08T21:11:46.034Z,12.00
2018-04-08T21:14:14.228Z,12.30
2018-04-08T21:16:42.398Z,12.20
2018-04-08T21:19:10.588Z,12.30
2018-04-08T21:21:39.148Z,12.40
2018-04-08T21:24:07.339Z,12.30
2018-04-08T21:26:35.507Z,12.20
2018-04-08T21:29:03.691Z,11.60
2018-04-08T21:31:31.987Z,11.90
2018-04-08T21:34:00.197Z,11.80
2018-04-08T21:36:28.364Z,11.80
2018-04-08T21:38:56.572Z,11.70
2018-04-08T21:41:24.784Z,11.80
2018-04-08T21:43:53.720Z,11.70
2018-04-08T21:46:21.915Z,11.70
2018-04-08T21:48:50.084Z,11.60
2018-04-08T21:51:18.416Z,11.60
2018-04-08T21:53:46.583Z,11.80
2018-04-08T21:56:14.783Z,11.70
2018-04-08T21:58:42.955Z,11.40
2018-04-08T22:01:15.112Z,11.60
2018-04-08T22:03:43.275Z,11.60
2018-04-08T22:06:11.508Z,11.50
2018-04-08T22:08:39.696Z,11.50
2018-04-08T22:11:07.972Z,11.20
2018-04-08T22:13:36.238Z,10.90
2018-04-08T22:16:04.425Z,11.00
2018-04-08T22:18:33.365Z,10.90
2018-04-08T22:21:01.637Z,10.90
2018-04-08T22:23:29.805Z,11.00
2018-04-08T22:25:58.007Z,11.10
2018-04-08T22:28:26.181Z,11.00
2018-04-08T22:30:54.432Z,10.70
2018-04-08T22:33:22.646Z,10.30
2018-04-08T22:35:50.840Z,10.40
2018-04-08T22:38:19.002Z,10.70
2018-04-08T22:40:47.436Z,10.60
2018-04-08T22:43:15.600Z,10.50
2018-04-08T22:45:43.800Z,10.10
2018-04-08T22:48:11.970Z,10.30
2018-04-08T22:50:40.236Z,10.50
2018-04-08T22:53:08.399Z,10.60
2018-04-08T22:55:36.604Z,10.50
2018-04-08T22:58:04.769Z,10.50
2018-04-08T23:00:33.008Z,10.50
2018-04-08T23:03:01.968Z,10.60
2018-04-08T23:05:30.137Z,10.50
2018-04-08T23:07:58.319Z,10.40
2018-04-08T23:10:26.535Z,10.20
2018-04-08T23:12:54.733Z,10.10
2018-04-08T23:15:22.926Z,10.10
2018-04-08T23:17:51.114Z,9.80
2018-04-08T23:20:19.349Z,9.70
2018-04-08T23:22:47.536Z,9.70
2018-04-08T23:25:15.708Z,9.80
2018-04-08T23:27:43.909Z,9.70
2018-04-08T23:30:12.119Z,9.80
2018-04-08T23:32:41.072Z,10.10
2018-04-08T23:35:09.252Z,10.10
2018-04-08T23:37:37.435Z,9.90
2018-04-08T23:40:05.636Z,10.00
2018-04-08T23:42:34.589Z,9.80
2018-04-08T23:45:02.754Z,9.70
2018-04-08T23:47:30.940Z,9.80
2018-04-08T23:49:59.148Z,9.80
2018-04-08T23:52:28.095Z,9.80
2018-04-08T23:54:56.271Z,9.70
2018-04-08T23:57:24.451Z,9.70
2018-04-08T23:59:53.535Z,9.70
